Time;durP1;ratioP1;P1;durP2;ratioP2;P2;SDS_P1;SDS_P2;PMS_P1;PMS_P2;Temp;Humidity;BMP_temperature;BMP_pressure;BME280_temperature;BME280_humidity;BME280_pressure;Samples;Min_cycle;Max_cycle;Signal;HPM_P1;HPM_P2
2022/06/20 00:02:21;;;;;;;11.10;5.13;;;;;;;22.96;51.17;98149.44;2618333;47;20031;-67
2022/06/20 00:04:52;;;;;;;10.07;4.95;;;;;;;23.15;50.92;98144.88;2618873;54;20034;-68
2022/06/20 00:07:25;;;;;;;12.60;5.32;;;;;;;23.32;50.93;98138.97;2618522;54;20027;-65
2022/06/20 00:09:56;;;;;;;8.93;5.20;;;;;;;23.44;50.16;98133.16;2618866;54;20062;-66
2022/06/20 00:12:28;;;;;;;13.10;5.53;;;;;;;23.34;50.26;98126.00;2618694;54;20045;-66
2022/06/20 00:15:01;;;;;;;12.07;5.30;;;;;;;23.10;50.56;98123.34;2618584;54;20030;-68
2022/06/20 00:17:31;;;;;;;10.05;4.82;;;;;;;22.95;51.69;98121.69;2619262;54;20022;-68
2022/06/20 00:20:00;;;;;;;13.98;5.68;;;;;;;22.96;51.26;98106.31;2619208;54;20053;-67
2022/06/20 00:22:33;;;;;;;14.63;5.05;;;;;;;22.84;51.79;98104.00;2620252;54;20053;-67
2022/06/20 00:25:02;;;;;;;11.60;5.20;;;;;;;22.91;51.87;98104.50;2619370;39;20442;-67
2022/06/20 00:27:32;;;;;;;11.85;5.57;;;;;;;22.90;51.61;98096.66;2619622;39;20438;-68
2022/06/20 00:30:03;;;;;;;16.05;5.88;;;;;;;22.93;51.39;98106.88;2620428;54;20573;-66
2022/06/20 00:32:33;;;;;;;12.00;5.70;;;;;;;22.96;51.43;98103.63;2619143;54;20027;-68
2022/06/20 00:35:03;;;;;;;10.88;4.72;;;;;;;23.03;51.37;98095.97;2619881;54;20026;-66
2022/06/20 00:37:35;;;;;;;14.32;5.03;;;;;;;23.11;51.23;98099.91;2620319;54;20037;-68
2022/06/20 00:40:19;;;;;;;13.93;5.32;;;;;;;23.13;51.24;98103.91;2618865;51;20030;-68
2022/06/20 00:42:48;;;;;;;11.00;5.30;;;;;;;22.89;51.70;98101.25;2622993;39;20433;-71
2022/06/20 00:45:20;;;;;;;13.35;5.57;;;;;;;22.70;52.34;98105.81;2627128;39;20741;-68
2022/06/20 00:47:53;;;;;;;8.20;4.95;;;;;;;22.70;52.33;98114.69;2624188;47;20034;-68
2022/06/20 00:50:27;;;;;;;10.55;5.55;;;;;;;22.81;52.60;98117.25;2625115;39;20477;-67
2022/06/20 00:53:04;;;;;;;11.02;5.32;;;;;;;22.86;52.03;98112.63;2622477;54;20035;-67
2022/06/20 00:55:38;;;;;;;9.52;4.60;;;;;;;22.92;51.97;98110.69;2623219;54;20031;-68
2022/06/20 00:58:14;;;;;;;14.90;5.78;;;;;;;22.91;52.26;98095.59;2622947;54;20027;-67
2022/06/20 01:00:44;;;;;;;8.70;5.07;;;;;;;22.63;52.62;98116.13;2620809;39;20441;-67
2022/06/20 01:03:19;;;;;;;13.32;4.97;;;;;;;22.41;53.27;98122.03;2619211;54;20021;-66
2022/06/20 01:05:53;;;;;;;8.40;5.10;;;;;;;22.28;53.86;98120.00;2617603;54;20162;-66
2022/06/20 01:08:28;;;;;;;12.23;5.30;;;;;;;22.24;53.69;98135.94;2618213;54;20149;-66
2022/06/20 01:11:02;;;;;;;10.82;5.47;;;;;;;22.27;53.70;98124.59;2618247;54;20034;-67
2022/06/20 01:13:32;;;;;;;11.68;5.63;;;;;;;22.05;54.57;98137.72;2618088;54;20038;-67
2022/06/20 01:16:09;;;;;;;15.48;6.25;;;;;;;22.05;54.91;98153.88;2618266;47;20045;-67
2022/06/20 01:18:38;;;;;;;9.45;5.30;;;;;;;21.97;54.36;98166.84;2619159;54;20026;-66
2022/06/20 01:21:17;;;;;;;13.32;5.45;;;;;;;22.08;54.31;98204.41;2619348;54;20026;-67
2022/06/20 01:23:59;;;;;;;11.55;4.75;;;;;;;21.98;54.44;98253.75;2618058;51;20030;-67
2022/06/20 01:26:40;;;;;;;9.93;5.60;;;;;;;21.80;54.95;98284.00;2620506;39;20430;-72
2022/06/20 01:29:14;;;;;;;12.90;6.10;;;;;;;21.52;55.15;98268.28;2622080;54;20049;-68
2022/06/20 01:31:47;;;;;;;11.88;5.18;;;;;;;21.34;55.61;98255.47;2621292;54;20545;-71
2022/06/20 01:34:20;;;;;;;14.50;4.78;;;;;;;21.31;55.59;98293.63;2621296;39;20413;-71
2022/06/20 01:39:40;;;;;;;9.88;4.38;;;;;;;21.09;55.31;98285.09;2620639;54;20036;-69
2022/06/20 01:42:19;;;;;;;11.75;4.55;;;;;;;20.98;55.60;98338.88;2620342;54;20035;-69
2022/06/20 01:44:55;;;;;;;12.05;4.35;;;;;;;20.92;55.43;98366.81;2620394;54;20042;-69
2022/06/20 01:47:25;;;;;;;8.63;3.67;;;;;;;20.88;55.90;98340.75;2620127;54;20037;-68
2022/06/20 01:49:58;;;;;;;8.77;3.95;;;;;;;20.84;55.02;98327.06;2619182;54;20045;-68
2022/06/20 01:52:33;;;;;;;7.90;3.67;;;;;;;20.71;54.93;98338.38;2618061;54;20039;-68
2022/06/20 01:55:08;;;;;;;9.93;3.65;;;;;;;20.55;55.35;98326.00;2618923;54;20026;-68
2022/06/20 01:57:42;;;;;;;9.32;3.30;;;;;;;20.32;55.64;98311.19;2621027;54;20608;-70
2022/06/20 02:00:18;;;;;;;10.60;3.80;;;;;;;20.40;55.97;98329.47;2625429;39;20440;-68
2022/06/20 02:02:53;;;;;;;7.00;3.50;;;;;;;20.43;55.16;98340.47;2618716;54;20027;-68
2022/06/20 02:05:27;;;;;;;9.52;4.25;;;;;;;20.25;55.81;98328.38;2618528;54;20133;-67
2022/06/20 02:07:59;;;;;;;10.60;4.20;;;;;;;20.19;55.68;98332.13;2619132;39;20490;-69
2022/06/20 02:10:34;;;;;;;13.00;3.92;;;;;;;20.35;55.87;98353.63;2618633;54;20042;-69
2022/06/20 02:13:05;;;;;;;10.20;3.45;;;;;;;20.42;55.42;98349.59;2618345;54;20546;-70
2022/06/20 02:15:39;;;;;;;12.40;5.00;;;;;;;20.47;54.96;98330.00;2619564;46;20050;-69
2022/06/20 02:18:10;;;;;;;14.20;3.90;;;;;;;20.53;54.73;98299.41;2619997;54;20537;-71
2022/06/20 02:20:45;;;;;;;13.50;4.25;;;;;;;20.49;54.67;98311.75;2625007;54;20509;-70
2022/06/20 02:23:18;;;;;;;7.45;3.30;;;;;;;20.43;54.49;98299.41;2625640;54;20038;-69
2022/06/20 02:25:50;;;;;;;13.20;3.80;;;;;;;20.33;54.97;98286.78;2623591;54;20554;-69
2022/06/20 02:28:23;;;;;;;11.60;3.45;;;;;;;20.42;55.18;98295.91;2623896;54;20033;-66
2022/06/20 02:30:56;;;;;;;10.18;3.47;;;;;;;20.49;54.74;98295.66;2621163;54;20030;-69
2022/06/20 02:33:30;;;;;;;11.68;4.78;;;;;;;20.47;54.84;98279.81;2621086;54;20037;-67
2022/06/20 02:36:01;;;;;;;10.20;3.63;;;;;;;20.50;54.60;98273.94;2621245;54;20034;-66
2022/06/20 02:38:31;;;;;;;10.55;3.38;;;;;;;20.43;54.94;98270.66;2621751;39;20433;-66
2022/06/20 02:41:01;;;;;;;11.57;3.53;;;;;;;20.28;55.13;98255.38;2620593;46;20026;-65
2022/06/20 02:43:42;;;;;;;14.88;4.03;;;;;;;20.20;55.49;98253.22;2621253;54;20045;-66
2022/06/20 02:46:20;;;;;;;10.43;3.90;;;;;;;20.26;55.34;98254.84;2621347;54;20043;-66
2022/06/20 02:48:52;;;;;;;11.32;3.90;;;;;;;20.29;55.03;98245.47;2620827;54;20126;-66
2022/06/20 02:51:26;;;;;;;6.95;3.28;;;;;;;20.28;55.42;98236.56;2619822;54;20168;-68
2022/06/20 02:53:59;;;;;;;6.20;3.95;;;;;;;20.31;55.16;98226.41;2619299;54;20604;-68
2022/06/20 02:56:33;;;;;;;10.52;3.83;;;;;;;20.24;55.33;98227.47;2622522;39;20424;-67
2022/06/20 02:59:07;;;;;;;9.02;3.92;;;;;;;20.20;55.29;98217.53;2622008;54;20033;-66
2022/06/20 03:01:45;;;;;;;12.52;3.97;;;;;;;20.22;55.87;98216.19;2621945;54;20041;-66
2022/06/20 03:04:15;;;;;;;9.38;3.17;;;;;;;20.21;55.43;98214.59;2621730;54;20030;-67
2022/06/20 03:06:48;;;;;;;6.57;2.92;;;;;;;20.19;55.36;98221.28;2621201;47;20099;-67
2022/06/20 03:09:24;;;;;;;11.05;4.28;;;;;;;20.13;55.88;98219.72;2621628;54;20054;-70
2022/06/20 03:11:54;;;;;;;10.93;3.13;;;;;;;20.20;56.04;98228.28;2621108;47;20039;-67
2022/06/20 03:14:36;;;;;;;15.10;4.20;;;;;;;20.19;55.76;98237.41;2622144;54;20027;-66
2022/06/20 03:17:09;;;;;;;11.13;3.20;;;;;;;20.21;56.03;98260.22;2621980;54;20018;-67
2022/06/20 03:19:44;;;;;;;9.85;3.50;;;;;;;20.41;55.55;98229.88;2621466;47;20123;-66
2022/06/20 03:22:19;;;;;;;9.85;3.78;;;;;;;20.38;55.00;98232.31;2621325;47;20057;-66
2022/06/20 03:24:50;;;;;;;8.25;3.20;;;;;;;20.39;55.51;98264.22;2621281;39;20425;-68
2022/06/20 03:27:24;;;;;;;11.70;3.15;;;;;;;20.46;55.25;98267.47;2619874;54;20033;-66
2022/06/20 03:29:57;;;;;;;5.53;3.10;;;;;;;20.58;54.87;98229.63;2618924;54;20038;-66
2022/06/20 03:32:30;;;;;;;12.03;3.20;;;;;;;20.48;55.22;98237.66;2619706;54;20538;-68
2022/06/20 03:35:00;;;;;;;10.00;3.53;;;;;;;20.39;55.07;98253.50;2621030;54;20042;-66
2022/06/20 03:37:29;;;;;;;11.80;3.80;;;;;;;20.41;55.47;98256.72;2618272;54;20041;-66
2022/06/20 03:39:59;;;;;;;14.20;3.58;;;;;;;20.59;55.46;98252.69;2618004;47;20031;-68
2022/06/20 03:42:29;;;;;;;6.88;3.00;;;;;;;20.75;55.10;98237.38;2619131;54;20034;-67
2022/06/20 03:45:01;;;;;;;10.43;3.25;;;;;;;20.66;54.86;98244.38;2620654;54;20561;-66
2022/06/20 03:47:37;;;;;;;10.77;3.97;;;;;;;20.58;55.48;98264.53;2619707;54;20038;-67
2022/06/20 03:50:13;;;;;;;8.27;3.58;;;;;;;20.53;55.05;98259.97;2619509;54;20038;-69
2022/06/20 03:52:49;;;;;;;7.07;3.33;;;;;;;20.45;55.47;98256.97;2619763;54;20034;-66
2022/06/20 03:55:23;;;;;;;11.55;3.50;;;;;;;20.38;55.83;98253.78;2620295;54;20038;-66
2022/06/20 03:57:57;;;;;;;5.63;3.35;;;;;;;20.35;56.30;98240.88;2621260;54;20031;-66
2022/06/20 04:00:35;;;;;;;10.65;3.47;;;;;;;20.30;55.97;98236.34;2620579;54;20022;-66
2022/06/20 04:03:13;;;;;;;8.15;3.25;;;;;;;20.28;56.59;98244.63;2619663;54;20545;-67
2022/06/20 04:05:50;;;;;;;10.95;3.55;;;;;;;20.35;56.27;98268.53;2621963;54;20022;-66
2022/06/20 04:08:25;;;;;;;9.77;3.67;;;;;;;20.57;56.13;98275.53;2620068;54;20034;-66
2022/06/20 04:10:59;;;;;;;9.88;4.60;;;;;;;20.71;55.65;98279.28;2617778;54;20042;-66
2022/06/20 04:13:35;;;;;;;8.10;3.20;;;;;;;20.70;55.45;98277.66;2617725;54;20057;-67
2022/06/20 04:16:09;;;;;;;13.95;3.45;;;;;;;20.70;55.60;98278.47;2617864;54;20049;-67
2022/06/20 04:18:50;;;;;;;7.43;3.65;;;;;;;20.84;54.98;98292.13;2617695;54;20564;-66
2022/06/20 04:21:26;;;;;;;8.77;3.85;;;;;;;21.06;54.91;98291.81;2617907;54;20046;-66
2022/06/20 04:24:00;;;;;;;8.90;3.92;;;;;;;21.20;54.89;98297.44;2617010;54;20030;-66
2022/06/20 04:26:34;;;;;;;11.68;3.55;;;;;;;21.24;54.07;98303.88;2617967;54;20558;-68
2022/06/20 04:29:11;;;;;;;14.85;4.20;;;;;;;21.18;54.09;98311.13;2617791;54;20037;-66
2022/06/20 04:31:45;;;;;;;12.00;3.63;;;;;;;21.13;54.80;98313.84;2617027;51;20026;-68
2022/06/20 04:34:23;;;;;;;9.13;3.53;;;;;;;21.16;54.65;98313.28;2617850;54;20039;-66
2022/06/20 04:36:58;;;;;;;11.00;4.38;;;;;;;21.24;54.61;98323.47;2617842;54;20034;-69
2022/06/20 04:39:37;;;;;;;10.73;3.78;;;;;;;21.26;54.66;98323.19;2617948;54;20037;-66
2022/06/20 04:42:17;;;;;;;11.75;3.75;;;;;;;21.18;54.56;98337.19;2617184;54;20046;-67
2022/06/20 04:44:55;;;;;;;7.47;4.07;;;;;;;21.18;54.73;98335.31;2617775;54;20030;-65
2022/06/20 04:47:41;;;;;;;13.32;3.20;;;;;;;20.97;54.77;98341.81;2617873;54;20031;-67
2022/06/20 04:50:18;;;;;;;8.68;3.22;;;;;;;20.90;55.16;98363.59;2618349;54;20027;-67
2022/06/20 04:52:50;;;;;;;10.05;3.35;;;;;;;20.89;55.42;98348.53;2618517;54;20556;-65
2022/06/20 04:55:24;;;;;;;10.75;3.72;;;;;;;20.85;55.45;98352.03;2618702;54;20034;-66
2022/06/20 04:57:55;;;;;;;8.50;3.53;;;;;;;20.80;55.71;98358.22;2620357;54;20039;-69
2022/06/20 05:00:30;;;;;;;9.20;4.00;;;;;;;20.72;56.05;98366.81;2621633;54;20057;-67
2022/06/20 05:03:00;;;;;;;7.20;3.70;;;;;;;20.64;56.25;98378.09;2622367;54;20031;-67
2022/06/20 05:05:36;;;;;;;9.98;3.47;;;;;;;20.56;56.30;98382.13;2623012;54;20030;-69
2022/06/20 05:08:13;;;;;;;9.00;3.40;;;;;;;20.46;56.31;98382.09;2622339;54;20043;-70
2022/06/20 05:10:47;;;;;;;8.02;3.47;;;;;;;20.44;56.61;98392.28;2622769;54;20042;-68
2022/06/20 05:13:24;;;;;;;9.93;3.75;;;;;;;20.51;56.38;98392.88;2622431;54;20041;-67
2022/06/20 05:15:55;;;;;;;7.15;3.10;;;;;;;20.56;56.45;98382.13;2622421;54;20503;-71
2022/06/20 05:18:31;;;;;;;10.68;3.50;;;;;;;20.62;56.41;98391.81;2621627;54;20038;-67
2022/06/20 05:21:09;;;;;;;6.10;3.20;;;;;;;20.63;56.23;98387.25;2620450;54;20038;-66
2022/06/20 05:23:43;;;;;;;13.25;7.55;;;;;;;20.64;56.22;98364.69;2620378;54;20037;-66
2022/06/20 05:26:17;;;;;;;8.98;3.50;;;;;;;20.63;56.23;98342.38;2619546;54;20038;-68
2022/06/20 05:28:49;;;;;;;8.82;3.80;;;;;;;20.52;55.99;98355.00;2620013;54;20106;-67
2022/06/20 05:31:23;;;;;;;7.65;3.53;;;;;;;20.52;56.56;98483.06;2619427;54;20543;-68
2022/06/20 05:33:58;;;;;;;11.23;3.88;;;;;;;20.35;57.11;98587.16;2618416;54;20042;-69
2022/06/20 05:36:34;;;;;;;10.98;4.03;;;;;;;20.18;58.54;98531.78;2617937;54;20818;-67
2022/06/20 05:39:12;;;;;;;16.48;5.20;;;;;;;20.11;60.77;98405.09;2618234;54;20042;-66
2022/06/20 05:41:42;;;;;;;19.65;5.28;;;;;;;19.79;62.06;98429.38;2620382;54;20565;-66
2022/06/20 05:44:14;;;;;;;11.82;4.35;;;;;;;19.82;62.34;98414.66;2618215;54;20030;-66
2022/06/20 05:46:48;;;;;;;10.40;4.40;;;;;;;19.76;63.92;98381.66;2618469;54;20026;-66
2022/06/20 05:49:25;;;;;;;15.88;4.95;;;;;;;19.71;64.63;98401.19;2618329;54;20026;-66
2022/06/20 05:51:59;;;;;;;9.52;4.20;;;;;;;19.83;64.54;98398.28;2617679;54;20022;-66
2022/06/20 05:54:35;;;;;;;12.20;5.38;;;;;;;19.99;64.55;98421.41;2618381;54;20039;-67
2022/06/20 05:57:11;;;;;;;14.70;4.70;;;;;;;20.20;64.25;98443.75;2617741;47;20810;-66
2022/06/20 05:59:44;;;;;;;15.15;5.63;;;;;;;20.11;64.20;98468.69;2617510;54;20042;-66
2022/06/20 06:02:25;;;;;;;14.48;4.90;;;;;;;19.94;65.47;98461.66;2618083;54;20034;-67
2022/06/20 06:05:07;;;;;;;12.68;4.80;;;;;;;19.98;65.18;98435.91;2618233;54;20030;-67
2022/06/20 06:07:54;;;;;;;13.10;4.95;;;;;;;20.12;65.19;98432.72;2618119;54;20040;-67
2022/06/20 06:10:36;;;;;;;10.60;4.97;;;;;;;20.00;65.90;98432.94;2618637;39;20469;-67
2022/06/20 06:13:16;;;;;;;11.10;4.80;;;;;;;20.06;65.53;98434.59;2618002;54;20554;-69
2022/06/20 06:18:42;;;;;;;11.90;4.90;;;;;;;20.45;64.90;98437.69;2619530;54;20595;-66
2022/06/20 06:21:12;;;;;;;15.82;5.13;;;;;;;20.63;64.56;98436.38;2619918;39;20433;-65
2022/06/20 06:23:46;;;;;;;18.67;5.20;;;;;;;20.68;64.52;98438.25;2618919;54;20042;-66
2022/06/20 06:26:18;;;;;;;11.18;5.80;;;;;;;20.72;63.81;98412.47;2618396;47;20056;-66
2022/06/20 06:28:51;;;;;;;13.00;5.30;;;;;;;20.61;63.75;98413.53;2618770;54;20114;-65
2022/06/20 06:31:25;;;;;;;12.65;5.03;;;;;;;20.56;63.88;98419.72;2619563;54;20057;-68
2022/06/20 06:33:59;;;;;;;9.45;4.15;;;;;;;20.75;64.01;98423.50;2619769;39;20490;-66
2022/06/20 06:36:34;;;;;;;11.50;4.60;;;;;;;20.87;63.19;98423.25;2618976;54;20166;-67
2022/06/20 06:39:13;;;;;;;12.32;4.05;;;;;;;20.83;63.10;98406.03;2618791;54;20041;-66
2022/06/20 06:41:47;;;;;;;9.30;4.78;;;;;;;20.82;63.01;98403.59;2619332;39;20442;-66
2022/06/20 06:44:19;;;;;;;10.90;5.03;;;;;;;20.83;63.38;98397.19;2618871;54;20034;-67
2022/06/20 06:46:54;;;;;;;12.02;5.15;;;;;;;20.79;63.92;98418.41;2618831;54;20046;-67
2022/06/20 06:49:31;;;;;;;11.35;5.45;;;;;;;20.99;64.18;98422.97;2618948;54;20067;-67
2022/06/20 06:52:07;;;;;;;12.43;5.55;;;;;;;21.11;64.29;98402.00;2618663;54;20085;-66
2022/06/20 06:54:57;;;;;;;12.75;5.53;;;;;;;21.14;64.27;98414.88;2618900;54;20056;-65
2022/06/20 06:57:33;;;;;;;11.70;5.38;;;;;;;21.15;65.04;98424.56;2618945;54;20038;-67
2022/06/20 07:00:22;;;;;;;19.27;6.32;;;;;;;21.19;64.66;98433.72;2618701;54;20035;-67
2022/06/20 07:02:57;;;;;;;15.20;6.75;;;;;;;21.08;64.86;98442.84;2618513;54;20023;-66
2022/06/20 07:05:33;;;;;;;14.13;6.32;;;;;;;21.03;65.52;98458.97;2617981;47;20130;-67
2022/06/20 07:08:11;;;;;;;12.68;6.20;;;;;;;21.15;65.58;98454.13;2618661;54;20118;-66
2022/06/20 07:10:55;;;;;;;12.75;5.43;;;;;;;21.25;65.04;98456.00;2618685;54;20033;-67
2022/06/20 07:13:33;;;;;;;9.07;6.25;;;;;;;21.33;64.65;98452.00;2618122;54;20034;-67
2022/06/20 07:16:04;;;;;;;13.63;5.80;;;;;;;21.36;64.59;98443.41;2618818;54;20576;-66
2022/06/20 07:18:46;;;;;;;14.40;5.95;;;;;;;21.41;64.37;98441.50;2618511;39;20458;-66
2022/06/20 07:21:19;;;;;;;15.55;5.50;;;;;;;21.54;63.81;98448.19;2618755;54;20042;-65
2022/06/20 07:23:51;;;;;;;14.60;5.63;;;;;;;21.60;63.40;98452.50;2618570;54;20041;-66
2022/06/20 07:26:27;;;;;;;9.98;5.63;;;;;;;21.71;62.71;98447.88;2618671;54;20026;-66
2022/06/20 07:29:02;;;;;;;11.63;4.57;;;;;;;21.72;63.19;98449.50;2618133;54;20022;-66
2022/06/20 07:31:37;;;;;;;10.63;5.22;;;;;;;21.74;63.97;98453.50;2618814;54;20033;-65
2022/06/20 07:34:13;;;;;;;14.38;5.60;;;;;;;21.92;63.22;98451.28;2618639;54;20046;-67
2022/06/20 07:36:48;;;;;;;10.52;6.05;;;;;;;22.12;63.13;98437.75;2619141;54;20572;-68
2022/06/20 07:39:23;;;;;;;10.02;5.68;;;;;;;22.33;62.27;98440.38;2619234;54;20035;-65
2022/06/20 07:42:01;;;;;;;11.00;5.30;;;;;;;22.57;62.14;98451.28;2619059;54;20034;-65
2022/06/20 07:44:37;;;;;;;10.48;5.22;;;;;;;22.85;61.76;98438.97;2618483;47;20035;-65
2022/06/20 07:47:13;;;;;;;12.27;4.97;;;;;;;23.08;60.71;98426.69;2619272;54;20037;-65
2022/06/20 07:49:48;;;;;;;8.90;4.90;;;;;;;23.33;60.95;98431.03;2619370;54;20042;-66
2022/06/20 07:52:23;;;;;;;6.90;5.10;;;;;;;23.65;59.31;98427.72;2618924;54;20042;-66
2022/06/20 07:54:59;;;;;;;7.70;5.20;;;;;;;23.76;58.79;98413.06;2618933;54;20034;-65
2022/06/20 07:57:36;;;;;;;6.00;3.97;;;;;;;23.75;58.90;98418.72;2619208;47;20039;-66
2022/06/20 08:00:11;;;;;;;8.52;4.63;;;;;;;23.78;59.42;98415.47;2619241;54;20018;-65
2022/06/20 08:02:47;;;;;;;7.95;4.40;;;;;;;23.77;59.25;98411.16;2618667;54;20042;-66
2022/06/20 08:05:23;;;;;;;9.50;4.28;;;;;;;23.69;58.25;98418.00;2618764;54;20154;-65
2022/06/20 08:08:00;;;;;;;8.82;4.55;;;;;;;23.59;58.25;98416.16;2618962;54;20041;-66
2022/06/20 08:10:34;;;;;;;7.55;3.90;;;;;;;23.62;57.58;98414.81;2619996;54;20031;-66
2022/06/20 09:34:21;;;;;;;8.70;4.00;;;;;;;23.10;61.49;98588.94;2606781;31;20469;-69
2022/06/20 09:37:06;;;;;;;12.32;4.50;;;;;;;23.12;61.78;98592.19;2618377;54;20022;-69
2022/06/20 09:39:43;;;;;;;9.70;4.07;;;;;;;23.10;60.58;98597.03;2618238;47;20053;-67
2022/06/20 09:42:21;;;;;;;10.52;5.15;;;;;;;22.94;60.91;98602.53;2618334;54;20027;-69
2022/06/20 09:45:01;;;;;;;9.50;4.70;;;;;;;22.97;61.22;98591.16;2618735;54;20580;-69
2022/06/20 09:47:40;;;;;;;9.77;5.68;;;;;;;22.87;61.03;98598.50;2617847;47;20034;-69
2022/06/20 09:50:30;;;;;;;11.07;3.80;;;;;;;22.85;61.29;98597.94;2618858;54;20068;-69
2022/06/20 09:53:13;;;;;;;12.25;4.57;;;;;;;22.95;61.14;98592.56;2618523;54;20038;-66
2022/06/20 09:55:53;;;;;;;8.10;3.83;;;;;;;22.85;61.52;98604.16;2618306;46;20534;-69
2022/06/20 09:58:37;;;;;;;8.18;4.28;;;;;;;22.74;61.52;98605.31;2617962;54;20027;-67
2022/06/20 10:01:16;;;;;;;10.93;3.60;;;;;;;22.67;61.85;98607.47;2619498;39;20415;-70
2022/06/20 10:03:54;;;;;;;9.40;3.70;;;;;;;22.45;61.38;98614.03;2619101;39;20724;-71
2022/06/20 10:06:37;;;;;;;13.07;4.80;;;;;;;22.40;61.14;98618.63;2618403;54;20797;-66
2022/06/20 10:09:16;;;;;;;6.50;4.05;;;;;;;21.90;62.41;98625.69;2618016;54;20038;-65
2022/06/20 10:11:50;;;;;;;5.75;3.58;;;;;;;21.68;63.08;98621.41;2618431;54;20030;-67
2022/06/20 10:14:27;;;;;;;5.38;3.58;;;;;;;21.64;62.70;98628.41;2619171;54;20042;-66
2022/06/20 10:17:02;;;;;;;5.70;3.50;;;;;;;20.90;64.18;98634.13;2618837;54;20046;-65
2022/06/20 10:19:41;;;;;;;5.32;3.25;;;;;;;20.88;65.32;98633.59;2618411;54;20030;-65
2022/06/20 10:22:20;;;;;;;6.15;3.85;;;;;;;21.02;64.09;98618.56;2618039;54;20042;-68
2022/06/20 10:25:17;;;;;;;5.82;3.17;;;;;;;21.23;64.03;98612.19;2618317;54;20031;-65
2022/06/20 10:28:15;;;;;;;4.68;3.10;;;;;;;21.20;63.74;98612.72;2617819;47;20022;-65
2022/06/20 10:30:50;;;;;;;8.50;3.17;;;;;;;21.33;63.31;98621.38;2618799;54;20042;-66
2022/06/20 10:33:33;;;;;;;3.17;2.75;;;;;;;21.55;62.39;98626.50;2618304;54;20034;-65
2022/06/20 10:36:21;;;;;;;5.30;2.97;;;;;;;21.45;62.64;98633.47;2618266;54;20022;-65
2022/06/20 10:39:12;;;;;;;3.00;2.63;;;;;;;21.74;61.70;98638.34;2618327;54;20260;-66
2022/06/20 10:41:52;;;;;;;3.35;3.05;;;;;;;22.08;61.01;98648.53;2618353;54;20038;-64
2022/06/20 10:44:27;;;;;;;3.00;2.33;;;;;;;22.31;60.34;98649.88;2618443;54;20031;-65
2022/06/20 10:47:09;;;;;;;4.95;3.25;;;;;;;22.72;59.08;98650.56;2619230;54;20038;-64
2022/06/20 10:49:54;;;;;;;4.20;3.20;;;;;;;23.08;58.33;98648.53;2618750;54;20029;-64
2022/06/20 10:52:38;;;;;;;4.93;2.97;;;;;;;23.02;58.02;98654.22;2619111;39;20438;-65
2022/06/20 10:55:18;;;;;;;;;;;;;;;23.09;57.69;98663.63;2619782;54;20041;-66
2022/06/20 10:57:59;;;;;;;3.35;3.05;;;;;;;22.51;58.46;98676.75;2618670;46;19970;-64
2022/06/20 11:00:31;;;;;;;4.20;3.42;;;;;;;22.42;59.25;98673.03;2621039;54;20027;-63
2022/06/20 11:03:36;;;;;;;4.88;3.33;;;;;;;22.08;58.92;98673.56;2621161;47;20037;-65
2022/06/20 11:06:16;;;;;;;4.28;3.30;;;;;;;22.01;58.51;98686.50;2621576;54;20143;-64
2022/06/20 11:08:56;;;;;;;3.47;3.17;;;;;;;21.58;59.50;98693.19;2623724;54;20049;-62
2022/06/20 11:11:39;;;;;;;4.57;3.30;;;;;;;21.10;59.71;98703.25;2623159;54;20023;-64
2022/06/20 11:14:25;;;;;;;3.08;2.88;;;;;;;21.04;60.37;98715.88;2622961;54;20030;-65
2022/06/20 11:17:05;;;;;;;3.85;3.45;;;;;;;20.78;59.39;98723.84;2621677;54;20038;-64
2022/06/20 11:19:45;;;;;;;4.03;3.63;;;;;;;20.31;60.17;98725.66;2621734;54;20062;-65
2022/06/20 11:22:29;;;;;;;4.07;3.53;;;;;;;19.94;60.64;98732.59;2620655;54;20038;-66
2022/06/20 11:25:09;;;;;;;4.05;3.70;;;;;;;19.78;60.99;98726.28;2623198;54;20045;-66
2022/06/20 11:28:19;;;;;;;7.22;3.42;;;;;;;19.73;61.18;98736.97;2622211;54;20039;-67
2022/06/20 11:30:57;;;;;;;4.75;3.83;;;;;;;19.83;60.75;98740.81;2622522;54;20034;-64
2022/06/20 11:36:28;;;;;;;4.30;3.90;;;;;;;19.94;60.86;98746.00;2622937;54;20049;-65
2022/06/20 11:39:10;;;;;;;3.28;2.97;;;;;;;20.19;60.20;98748.09;2622429;54;20027;-64
2022/06/20 11:41:52;;;;;;;3.78;2.92;;;;;;;20.21;59.48;98751.34;2621882;47;20029;-65
2022/06/20 11:44:50;;;;;;;3.28;2.97;;;;;;;20.21;59.26;98767.44;2622470;54;20037;-65
2022/06/20 11:47:35;;;;;;;5.25;3.45;;;;;;;19.84;59.72;98745.94;2622071;54;20031;-66
2022/06/20 11:50:34;;;;;;;6.10;3.40;;;;;;;19.75;59.80;98763.53;2622990;54;20122;-65
2022/06/20 11:53:33;;;;;;;3.92;3.63;;;;;;;19.75;60.38;98758.97;2622359;54;20038;-65
2022/06/20 11:56:09;;;;;;;4.20;3.90;;;;;;;20.01;59.95;98760.03;2622505;54;20050;-65
2022/06/20 11:59:09;;;;;;;5.38;4.10;;;;;;;19.99;59.36;98759.47;2622393;54;20074;-64
2022/06/20 12:01:47;;;;;;;4.35;3.83;;;;;;;20.44;58.89;98750.16;2623301;54;20039;-65
2022/06/20 12:04:24;;;;;;;4.50;4.10;;;;;;;20.67;57.56;98765.13;2623474;54;20030;-64
2022/06/20 12:07:00;;;;;;;4.35;3.95;;;;;;;20.53;57.17;98756.72;2623370;54;20061;-65
2022/06/20 12:09:46;;;;;;;5.20;4.80;;;;;;;20.23;57.59;98768.00;2624128;54;20023;-64
2022/06/20 12:12:35;;;;;;;7.30;5.75;;;;;;;19.67;59.06;98786.25;2624136;54;20034;-65
2022/06/20 12:15:31;;;;;;;7.82;5.28;;;;;;;19.62;59.45;98796.91;2623536;47;20026;-65
2022/06/20 12:18:19;;;;;;;6.20;5.60;;;;;;;19.84;59.63;98798.75;2623429;54;20546;-67
2022/06/20 12:23:41;;;;;;;6.30;5.70;;;;;;;20.17;58.68;98790.50;2624043;54;20049;-68
2022/06/20 12:26:16;;;;;;;5.90;5.13;;;;;;;20.46;58.02;98791.00;2623516;47;20034;-67
2022/06/20 12:28:48;;;;;;;6.60;5.20;;;;;;;20.75;57.56;98788.81;2624509;54;20026;-67
2022/06/20 12:31:22;;;;;;;6.10;5.50;;;;;;;21.15;56.11;98789.31;2623973;39;20403;-65
2022/06/20 12:33:57;;;;;;;5.95;5.45;;;;;;;21.34;55.54;98773.53;2624120;54;20025;-66
2022/06/20 12:36:35;;;;;;;6.13;5.53;;;;;;;21.50;54.62;98770.63;2623251;47;20039;-66
2022/06/20 12:39:15;;;;;;;5.75;5.25;;;;;;;21.63;54.78;98774.69;2623733;54;20034;-67
2022/06/20 12:41:49;;;;;;;7.13;6.43;;;;;;;22.05;54.73;98767.53;2623530;54;20034;-66
2022/06/20 12:44:43;;;;;;;6.68;6.18;;;;;;;22.54;53.25;98772.41;2623664;54;20038;-69
2022/06/20 12:47:36;;;;;;;7.20;6.60;;;;;;;22.76;52.21;98772.88;2624166;54;20038;-67
2022/06/20 12:50:23;;;;;;;7.50;6.90;;;;;;;22.77;51.16;98771.00;2622020;47;20031;-66
2022/06/20 12:53:08;;;;;;;7.65;6.95;;;;;;;22.17;52.18;98773.50;2622899;47;20037;-67
2022/06/20 12:56:05;;;;;;;7.55;6.82;;;;;;;21.93;53.00;98783.94;2622603;47;20035;-65
2022/06/20 12:59:00;;;;;;;7.38;6.55;;;;;;;21.87;53.67;98785.78;2624273;39;20469;-65
2022/06/20 13:01:36;;;;;;;7.38;6.53;;;;;;;21.68;53.64;98782.81;2623273;54;20069;-67
2022/06/20 13:04:19;;;;;;;7.95;6.85;;;;;;;21.58;53.23;98792.72;2622884;54;20114;-68
2022/06/20 13:07:23;;;;;;;6.82;6.22;;;;;;;21.54;53.18;98780.88;2622884;54;20031;-66
2022/06/20 13:10:15;;;;;;;7.15;6.43;;;;;;;21.69;52.92;98781.72;2623566;54;20039;-66
2022/06/20 13:13:02;;;;;;;7.25;6.65;;;;;;;21.91;52.58;98788.75;2624847;54;20038;-66
2022/06/20 13:15:42;;;;;;;7.00;6.40;;;;;;;22.13;52.18;98793.94;2623748;54;20053;-67
2022/06/20 13:18:42;;;;;;;6.82;6.22;;;;;;;22.23;51.78;98792.06;2623882;54;20038;-68
2022/06/20 13:21:18;;;;;;;8.05;7.30;;;;;;;22.12;51.83;98792.28;2623157;54;20042;-68
2022/06/20 13:24:01;;;;;;;8.05;7.18;;;;;;;22.06;51.92;98783.41;2623486;54;20038;-66
2022/06/20 13:26:39;;;;;;;8.38;7.57;;;;;;;22.17;51.37;98784.25;2623950;54;20026;-68
2022/06/20 13:29:27;;;;;;;7.28;6.68;;;;;;;22.20;51.84;98776.44;2623452;54;20033;-68
2022/06/20 13:32:03;;;;;;;6.95;6.25;;;;;;;22.52;51.28;98785.31;2623008;54;20030;-67
2022/06/20 13:34:46;;;;;;;6.60;6.00;;;;;;;22.30;50.50;98783.72;2624085;46;20042;-67
2022/06/20 13:37:28;;;;;;;8.13;6.13;;;;;;;21.76;51.82;98792.25;2623591;47;20042;-70
2022/06/20 13:40:13;;;;;;;6.28;5.78;;;;;;;21.66;52.14;98795.69;2624183;54;20041;-68
2022/06/20 13:42:50;;;;;;;7.25;6.57;;;;;;;21.94;51.98;98788.22;2621960;47;20045;-66
2022/06/20 13:45:25;;;;;;;6.18;5.57;;;;;;;21.86;51.61;98796.81;2623958;54;20030;-67
2022/06/20 13:48:02;;;;;;;6.57;5.97;;;;;;;21.69;51.65;98784.41;2624479;39;20441;-68
2022/06/20 13:50:37;;;;;;;7.18;5.93;;;;;;;21.67;52.49;98783.84;2622652;54;20677;-67